createdAt,value
2022-10-26T00:01:15.250Z,14.64
2022-10-26T00:03:43.527Z,14.72
2022-10-26T00:06:12.980Z,14.70
2022-10-26T00:08:40.230Z,14.65
2022-10-26T00:11:08.071Z,14.65
2022-10-26T00:13:35.783Z,14.64
2022-10-26T00:16:08.661Z,14.65
2022-10-26T00:18:35.702Z,14.66
2022-10-26T00:21:06.860Z,14.66
2022-10-26T00:23:33.963Z,14.63
2022-10-26T00:26:00.791Z,14.57
2022-10-26T00:28:27.603Z,14.62
2022-10-26T00:30:54.483Z,14.54
2022-10-26T00:33:21.380Z,14.55
2022-10-26T00:35:57.334Z,14.55
2022-10-26T00:38:24.083Z,14.45
2022-10-26T00:40:51.071Z,14.47
2022-10-26T00:43:30.215Z,14.40
2022-10-26T00:45:59.675Z,14.44
2022-10-26T00:48:30.335Z,14.40
2022-10-26T00:51:00.865Z,14.43
2022-10-26T00:53:28.501Z,14.49
2022-10-26T00:55:56.421Z,14.46
2022-10-26T00:58:25.022Z,14.48
2022-10-26T01:00:52.972Z,14.34
2022-10-26T01:03:20.792Z,14.40
2022-10-26T01:05:49.583Z,14.38
2022-10-26T01:08:17.304Z,14.27
2022-10-26T01:10:44.475Z,14.19
2022-10-26T01:13:13.506Z,14.16
2022-10-26T01:15:58.868Z,14.14
2022-10-26T01:18:44.954Z,14.00
2022-10-26T01:21:30.061Z,14.03
2022-10-26T01:24:23.471Z,14.06
2022-10-26T01:27:16.181Z,14.00
2022-10-26T01:30:12.130Z,13.81
2022-10-26T01:32:53.771Z,13.68
2022-10-26T01:35:42.674Z,13.58
2022-10-26T01:38:26.148Z,13.35
2022-10-26T01:41:13.969Z,13.38
2022-10-26T01:43:46.315Z,13.10
2022-10-26T01:46:14.744Z,13.05
2022-10-26T01:48:42.626Z,13.00
2022-10-26T01:51:11.281Z,13.02
2022-10-26T01:53:45.705Z,13.01
2022-10-26T01:56:19.358Z,12.65
2022-10-26T01:58:48.936Z,12.81
2022-10-26T02:01:46.140Z,12.59
2022-10-26T02:04:22.452Z,12.59
2022-10-26T02:07:21.564Z,12.46
2022-10-26T02:10:16.015Z,12.48
2022-10-26T02:12:58.373Z,12.40
2022-10-26T02:15:47.388Z,12.36
2022-10-26T02:18:55.141Z,12.10
2022-10-26T02:21:27.924Z,12.14
2022-10-26T02:23:58.432Z,12.14
2022-10-26T02:26:29.410Z,12.11
2022-10-26T02:29:00.816Z,12.15
2022-10-26T02:31:29.183Z,12.13
2022-10-26T02:33:58.617Z,12.20
2022-10-26T02:36:29.272Z,12.36
2022-10-26T02:38:57.913Z,12.43
2022-10-26T02:41:26.810Z,12.63
2022-10-26T02:44:11.782Z,12.63
2022-10-26T04:39:21.873Z,12.62
2022-10-26T04:41:48.507Z,12.54
2022-10-26T04:44:15.131Z,12.36
2022-10-26T04:46:41.846Z,12.31
2022-10-26T04:49:08.667Z,12.25
2022-10-26T04:51:35.891Z,12.27
2022-10-26T04:54:03.654Z,12.11
2022-10-26T04:56:30.490Z,12.11
2022-10-26T04:58:57.164Z,12.11
2022-10-26T05:01:23.839Z,11.98
2022-10-26T05:03:51.507Z,11.96
2022-10-26T05:06:18.367Z,11.81
2022-10-26T05:08:45.075Z,11.84
2022-10-26T05:11:11.803Z,11.77
2022-10-26T05:13:38.557Z,11.87
2022-10-26T05:16:05.694Z,12.08
2022-10-26T05:18:32.263Z,12.16
2022-10-26T05:20:59.074Z,12.39
2022-10-26T05:23:25.662Z,12.66
2022-10-26T05:25:52.282Z,12.84
2022-10-26T05:28:18.982Z,12.98
2022-10-26T05:30:47.050Z,13.22
2022-10-26T05:33:14.678Z,13.43
2022-10-26T05:35:41.475Z,13.73
2022-10-26T05:38:14.506Z,14.03
2022-10-26T05:40:49.153Z,14.38
2022-10-26T05:43:15.950Z,14.41
2022-10-26T05:45:42.555Z,14.48
2022-10-26T05:48:09.228Z,14.70
2022-10-26T05:50:35.883Z,14.64
2022-10-26T05:53:02.558Z,14.79
2022-10-26T05:55:29.634Z,15.08
2022-10-26T05:57:56.674Z,15.21
2022-10-26T06:00:25.793Z,15.21
2022-10-26T06:03:07.220Z,15.19
2022-10-26T06:05:45.557Z,15.24
2022-10-26T06:08:12.495Z,15.10
2022-10-26T06:10:39.701Z,15.12
2022-10-26T06:13:06.610Z,15.07
2022-10-26T06:15:43.376Z,15.20
2022-10-26T06:18:20.638Z,15.00
2022-10-26T06:21:11.446Z,15.01
2022-10-26T06:24:22.518Z,14.91
2022-10-26T06:27:15.719Z,15.06
2022-10-26T06:29:56.114Z,15.27
2022-10-26T06:32:24.962Z,15.21
2022-10-26T06:34:58.630Z,15.38
2022-10-26T06:37:26.146Z,15.30
2022-10-26T06:39:54.808Z,15.51
2022-10-26T06:42:22.090Z,15.49
2022-10-26T06:44:49.277Z,15.50
2022-10-26T06:47:23.602Z,15.87
2022-10-26T06:50:11.857Z,16.22
2022-10-26T06:52:52.303Z,16.19
2022-10-26T06:55:19.353Z,16.10
2022-10-26T06:57:46.371Z,16.42
2022-10-26T07:00:23.687Z,16.52
2022-10-26T07:02:50.820Z,16.22
2022-10-26T07:05:18.111Z,16.41
2022-10-26T07:07:48.459Z,16.41
2022-10-26T07:10:15.939Z,16.37
2022-10-26T07:12:42.542Z,16.39
2022-10-26T07:17:46.840Z,16.44
2022-10-26T07:20:14.704Z,16.47
2022-10-26T07:22:42.803Z,16.51
2022-10-26T07:25:10.053Z,16.57
2022-10-26T07:27:36.610Z,16.42
2022-10-26T07:30:03.780Z,16.36
2022-10-26T07:32:30.582Z,16.48
2022-10-26T07:34:57.263Z,16.36
2022-10-26T07:37:24.048Z,16.47
2022-10-26T07:39:50.597Z,16.56
2022-10-26T07:42:17.219Z,16.59
2022-10-26T07:44:43.770Z,16.78
2022-10-26T07:47:10.384Z,16.78
2022-10-26T07:49:37.017Z,16.84
2022-10-26T07:52:03.737Z,16.95
2022-10-26T07:54:30.339Z,16.92
2022-10-26T07:56:56.918Z,17.06
2022-10-26T07:59:23.741Z,16.86
2022-10-26T08:01:50.413Z,16.87
2022-10-26T08:04:17.206Z,16.95
2022-10-26T08:06:43.888Z,16.90
2022-10-26T08:09:10.646Z,17.09
2022-10-26T08:11:37.283Z,17.29
2022-10-26T08:14:04.422Z,17.31
2022-10-26T08:16:31.469Z,17.37
2022-10-26T08:18:58.174Z,17.48
2022-10-26T08:21:36.143Z,17.80
2022-10-26T08:24:06.703Z,17.93
2022-10-26T08:26:33.369Z,18.05
2022-10-26T08:29:00.005Z,18.25
2022-10-26T08:31:26.688Z,18.51
2022-10-26T08:33:53.290Z,18.56
2022-10-26T08:36:27.913Z,18.82
2022-10-26T08:38:54.469Z,18.94
2022-10-26T08:41:33.377Z,18.91
2022-10-26T08:44:07.965Z,19.08
2022-10-26T08:46:41.419Z,19.06
2022-10-26T08:49:40.312Z,19.12
2022-10-26T08:52:13.072Z,19.28
2022-10-26T08:54:49.018Z,19.63
2022-10-26T08:57:22.427Z,19.67
2022-10-26T09:00:03.050Z,19.64
2022-10-26T09:02:29.887Z,19.39
2022-10-26T09:04:59.268Z,19.48
2022-10-26T09:07:47.322Z,19.82
2022-10-26T09:10:36.801Z,19.74
2022-10-26T09:13:32.530Z,19.71
2022-10-26T09:16:08.039Z,19.92
2022-10-26T09:18:59.015Z,20.03
2022-10-26T09:21:51.406Z,20.22
2022-10-26T09:24:34.420Z,20.00
2022-10-26T09:27:01.090Z,20.16
2022-10-26T09:29:37.132Z,20.20
2022-10-26T09:32:06.484Z,20.22
2022-10-26T09:34:39.655Z,20.41
2022-10-26T09:37:18.503Z,20.77
2022-10-26T09:40:15.836Z,20.89
2022-10-26T09:42:58.338Z,20.91
2022-10-26T09:45:30.062Z,20.62
2022-10-26T09:48:05.177Z,20.78
2022-10-26T09:50:39.304Z,20.94
2022-10-26T09:53:06.159Z,20.68
2022-10-26T09:55:34.813Z,20.80
2022-10-26T09:58:06.468Z,20.70
2022-10-26T10:03:02.495Z,20.85
2022-10-26T10:05:52.681Z,21.42
2022-10-26T10:08:25.178Z,21.48
2022-10-26T10:11:08.228Z,21.42
2022-10-26T10:13:40.841Z,21.17
2022-10-26T10:16:20.748Z,21.14
2022-10-26T10:18:55.977Z,21.64
2022-10-26T10:21:37.070Z,21.88
2022-10-26T10:24:25.468Z,21.52
2022-10-26T10:26:58.163Z,21.62
2022-10-26T10:29:33.391Z,21.49
2022-10-26T10:32:02.814Z,21.74
2022-10-26T10:34:33.770Z,21.77
2022-10-26T10:37:01.605Z,21.79
2022-10-26T10:39:37.411Z,21.75
2022-10-26T10:42:06.588Z,22.07
2022-10-26T10:44:34.456Z,22.27
2022-10-26T10:47:06.208Z,22.36
2022-10-26T10:49:33.907Z,22.00
2022-10-26T10:52:00.761Z,21.88
2022-10-26T10:54:29.339Z,21.95
2022-10-26T10:57:18.681Z,22.09
2022-10-26T10:59:58.613Z,21.91
2022-10-26T11:02:40.334Z,22.18
2022-10-26T11:05:24.716Z,22.20
2022-10-26T11:08:02.951Z,22.19
2022-10-26T11:10:36.893Z,22.85
2022-10-26T11:13:12.898Z,22.71
2022-10-26T11:15:42.479Z,22.86
2022-10-26T11:18:17.307Z,22.63
2022-10-26T11:20:51.534Z,22.71
2022-10-26T11:23:30.601Z,22.70
2022-10-26T11:26:14.050Z,22.44
2022-10-26T11:29:01.786Z,22.35
2022-10-26T11:31:34.902Z,22.31
2022-10-26T11:34:01.462Z,22.25
2022-10-26T11:36:31.732Z,22.16
2022-10-26T11:39:06.473Z,22.33
2022-10-26T11:41:40.195Z,22.24
2022-10-26T11:44:32.100Z,22.08
2022-10-26T11:47:08.542Z,22.41
2022-10-26T11:50:06.568Z,22.46
2022-10-26T11:52:40.687Z,22.53
2022-10-26T11:55:10.343Z,22.71
2022-10-26T11:57:37.754Z,22.81
2022-10-26T12:00:07.902Z,22.81
2022-10-26T12:05:33.660Z,22.96
2022-10-26T12:08:06.098Z,22.93
2022-10-26T12:10:37.718Z,22.85
2022-10-26T12:13:37.680Z,22.71
2022-10-26T12:16:18.022Z,22.50
2022-10-26T12:19:05.156Z,22.38
2022-10-26T12:21:33.625Z,22.54
2022-10-26T12:24:21.887Z,22.72
2022-10-26T12:26:52.443Z,22.76
2022-10-26T12:29:32.726Z,22.83
2022-10-26T12:31:59.660Z,22.75
2022-10-26T12:34:32.157Z,22.77
2022-10-26T12:36:58.695Z,22.58
2022-10-26T12:39:38.397Z,22.61
2022-10-26T12:42:04.893Z,22.53
2022-10-26T12:44:45.711Z,22.64
2022-10-26T12:47:30.754Z,22.61
2022-10-26T12:50:00.473Z,22.60
2022-10-26T12:52:31.848Z,22.52
2022-10-26T12:55:13.499Z,22.47
2022-10-26T12:58:01.673Z,22.54
2022-10-26T13:00:28.949Z,22.94
2022-10-26T13:03:04.622Z,22.95
2022-10-26T13:05:52.936Z,22.70
2022-10-26T13:08:19.990Z,22.48
2022-10-26T13:11:03.764Z,22.56
2022-10-26T13:13:32.606Z,22.53
2022-10-26T13:16:01.436Z,22.66
2022-10-26T13:18:29.210Z,22.52
2022-10-26T13:21:13.636Z,22.69
2022-10-26T13:23:43.371Z,22.59
2022-10-26T13:26:13.543Z,22.64
2022-10-26T13:28:40.048Z,22.56
2022-10-26T13:31:28.542Z,22.32
2022-10-26T13:34:17.333Z,22.38
2022-10-26T13:37:05.641Z,22.41
2022-10-26T13:39:39.617Z,22.23
2022-10-26T13:42:08.381Z,22.30
2022-10-26T13:44:59.396Z,22.52
2022-10-26T13:47:28.897Z,22.48
2022-10-26T13:50:04.026Z,22.25
2022-10-26T13:52:38.662Z,22.21
2022-10-26T13:55:16.776Z,22.07
2022-10-26T13:57:50.185Z,21.98
2022-10-26T14:00:21.963Z,21.90
2022-10-26T14:02:49.293Z,21.83
2022-10-26T14:05:18.447Z,21.63
2022-10-26T14:07:52.624Z,21.63
2022-10-26T14:10:27.058Z,21.61
2022-10-26T14:12:53.941Z,21.47
2022-10-26T14:15:25.883Z,21.61
2022-10-26T14:17:53.987Z,21.40
2022-10-26T14:20:22.857Z,21.17
2022-10-26T14:22:49.555Z,21.06
2022-10-26T14:25:35.916Z,21.01
2022-10-26T14:28:26.547Z,21.12
2022-10-26T14:30:53.303Z,20.98
2022-10-26T14:33:26.311Z,21.04
2022-10-26T14:35:54.152Z,21.06
2022-10-26T14:38:30.141Z,21.09
2022-10-26T14:40:58.054Z,21.16
2022-10-26T14:43:25.827Z,21.56
2022-10-26T14:45:54.236Z,22.16
2022-10-26T14:48:25.490Z,21.87
2022-10-26T14:51:15.369Z,21.41
2022-10-26T14:53:49.150Z,21.08
2022-10-26T14:56:21.647Z,21.09
2022-10-26T14:58:48.833Z,21.15
2022-10-26T15:01:22.644Z,21.22
2022-10-26T15:03:56.674Z,21.26
2022-10-26T15:06:29.583Z,20.79
2022-10-26T15:08:58.237Z,20.62
2022-10-26T15:11:26.474Z,20.53
2022-10-26T15:13:54.433Z,20.32
2022-10-26T15:16:23.645Z,20.09
2022-10-26T15:18:54.832Z,19.85
2022-10-26T15:21:27.826Z,19.52
2022-10-26T15:23:56.674Z,19.42
2022-10-26T15:26:25.066Z,19.26
2022-10-26T15:28:53.471Z,18.98
2022-10-26T15:31:20.044Z,18.91
2022-10-26T15:33:49.436Z,18.67
2022-10-26T15:36:18.665Z,18.32
2022-10-26T15:38:46.752Z,18.16
2022-10-26T15:41:26.486Z,18.03
2022-10-26T15:43:58.971Z,17.84
2022-10-26T15:46:30.088Z,17.57
2022-10-26T15:49:05.813Z,17.68
2022-10-26T15:51:32.762Z,17.63
2022-10-26T15:54:02.264Z,17.57
2022-10-26T15:56:29.094Z,17.59
2022-10-26T15:58:57.476Z,17.63
2022-10-26T16:01:30.539Z,17.66
2022-10-26T16:03:57.144Z,17.70
2022-10-26T16:06:27.493Z,17.76
2022-10-26T16:08:57.099Z,17.73
2022-10-26T16:11:23.810Z,17.71
2022-10-26T16:16:22.359Z,17.64
2022-10-26T16:19:06.050Z,17.68
2022-10-26T16:21:38.712Z,17.59
2022-10-26T16:24:05.597Z,17.47
2022-10-26T16:26:32.116Z,17.44
2022-10-26T16:28:58.671Z,17.46
2022-10-26T16:31:25.332Z,17.41
2022-10-26T16:33:52.008Z,17.35
2022-10-26T16:36:18.583Z,17.39
2022-10-26T16:38:45.245Z,17.31
2022-10-26T16:41:14.105Z,17.28
2022-10-26T16:43:42.854Z,17.18
2022-10-26T16:46:12.882Z,17.20
2022-10-26T16:48:41.079Z,17.08
2022-10-26T16:51:22.816Z,16.98
2022-10-26T16:53:51.793Z,16.87
2022-10-26T16:56:22.087Z,16.72
2022-10-26T16:58:49.154Z,16.68
2022-10-26T17:01:20.689Z,16.56
2022-10-26T17:03:49.421Z,16.47
2022-10-26T17:06:17.333Z,16.27
2022-10-26T17:08:44.470Z,16.35
2022-10-26T17:11:17.153Z,16.09
2022-10-26T17:13:44.478Z,16.11
2022-10-26T17:16:14.248Z,15.98
2022-10-26T17:18:41.947Z,15.99
2022-10-26T17:21:09.863Z,15.89
2022-10-26T17:23:36.447Z,15.75
2022-10-26T17:26:05.271Z,15.68
2022-10-26T17:28:32.613Z,15.57
2022-10-26T17:31:04.266Z,15.53
2022-10-26T17:33:33.169Z,15.27
2022-10-26T17:35:59.870Z,15.35
2022-10-26T17:38:26.540Z,15.20
2022-10-26T17:40:53.352Z,15.15
2022-10-26T17:43:19.980Z,15.17
2022-10-26T17:45:46.613Z,15.06
2022-10-26T17:48:13.271Z,14.94
2022-10-26T17:50:39.880Z,14.94
2022-10-26T17:53:07.615Z,14.97
2022-10-26T17:55:34.390Z,14.99
2022-10-26T17:58:01.159Z,15.01
2022-10-26T18:00:27.951Z,15.04
2022-10-26T18:02:54.924Z,15.07
2022-10-26T18:05:21.783Z,15.13
2022-10-26T18:07:48.817Z,15.12
2022-10-26T18:10:38.011Z,15.10
2022-10-26T18:13:02.666Z,15.04
2022-10-26T18:15:29.405Z,15.09
2022-10-26T18:17:59.830Z,15.02
2022-10-26T18:20:27.409Z,14.89
2022-10-26T18:22:54.109Z,14.83
2022-10-26T18:25:20.832Z,14.89
2022-10-26T18:27:47.727Z,14.95
2022-10-26T18:30:14.497Z,14.86
2022-10-26T18:32:41.401Z,14.86
2022-10-26T18:35:08.455Z,14.84
2022-10-26T18:37:35.245Z,14.88
2022-10-26T18:40:01.992Z,14.81
2022-10-26T18:42:28.652Z,14.63
2022-10-26T18:45:00.734Z,14.65
2022-10-26T18:47:28.944Z,14.58
2022-10-26T18:49:56.090Z,14.49
2022-10-26T18:52:28.104Z,14.28
2022-10-26T18:54:55.087Z,14.30
2022-10-26T18:57:27.167Z,14.25
2022-10-26T18:59:54.960Z,14.23
2022-10-26T19:02:23.158Z,14.15
2022-10-26T19:04:51.730Z,14.16
2022-10-26T19:07:18.431Z,14.15
2022-10-26T19:09:45.175Z,14.08
2022-10-26T19:12:11.934Z,13.99
2022-10-26T19:14:38.693Z,14.01
2022-10-26T19:17:05.646Z,14.08
2022-10-26T19:19:32.488Z,14.02
2022-10-26T19:22:00.477Z,14.04
2022-10-26T19:24:27.222Z,13.98
2022-10-26T19:26:54.328Z,13.91
2022-10-26T19:29:21.683Z,13.70
2022-10-26T19:31:52.003Z,13.69
2022-10-26T19:34:18.889Z,13.73
2022-10-26T19:36:47.279Z,13.76
2022-10-26T19:39:17.708Z,13.74
2022-10-26T19:41:46.067Z,13.72
2022-10-26T19:44:14.705Z,13.83
2022-10-26T19:46:43.554Z,13.83
2022-10-26T19:49:10.683Z,13.73
2022-10-26T19:51:37.310Z,13.64
2022-10-26T19:54:06.396Z,13.60
2022-10-26T19:56:34.188Z,13.52
2022-10-26T19:59:01.673Z,13.50
2022-10-26T20:01:28.669Z,13.43
2022-10-26T20:03:55.425Z,13.28
2022-10-26T20:06:22.027Z,13.07
2022-10-26T20:08:49.272Z,12.83
2022-10-26T20:11:17.245Z,12.84
2022-10-26T20:13:46.206Z,12.68
2022-10-26T20:16:13.750Z,12.57
2022-10-26T20:18:44.075Z,12.51
2022-10-26T20:21:14.768Z,12.27
2022-10-26T20:23:42.575Z,12.27
2022-10-26T20:26:11.701Z,12.13
2022-10-26T20:28:44.579Z,12.11
2022-10-26T20:31:11.218Z,12.07
2022-10-26T20:33:37.914Z,12.02
2022-10-26T20:36:04.632Z,12.02
2022-10-26T20:38:31.704Z,11.91
2022-10-26T20:40:59.406Z,11.84
2022-10-26T20:43:27.903Z,11.73
2022-10-26T20:45:56.209Z,11.66
2022-10-26T20:48:23.097Z,11.54
2022-10-26T20:54:00.720Z,11.47
2022-10-26T20:56:27.859Z,11.39
2022-10-26T20:58:57.174Z,11.33
2022-10-26T21:01:34.876Z,11.30
2022-10-26T21:04:03.581Z,11.31
2022-10-26T21:06:39.876Z,11.27
2022-10-26T21:09:07.492Z,11.23
2022-10-26T21:11:34.154Z,11.15
2022-10-26T21:14:03.309Z,11.03
2022-10-26T21:16:29.984Z,11.16
2022-10-26T21:18:56.558Z,11.22
2022-10-26T21:21:23.155Z,11.22
2022-10-26T21:23:49.792Z,11.31
2022-10-26T21:26:16.348Z,11.31
2022-10-26T21:28:47.797Z,11.31
2022-10-26T21:31:18.715Z,11.36
2022-10-26T21:33:46.695Z,11.37
2022-10-26T21:36:14.162Z,11.35
2022-10-26T21:38:42.533Z,11.40
2022-10-26T21:41:17.460Z,11.35
2022-10-26T21:43:46.334Z,11.37
2022-10-26T21:46:13.628Z,11.33
2022-10-26T21:48:41.164Z,11.29
2022-10-26T21:51:12.108Z,11.35
2022-10-26T21:53:39.001Z,11.34
2022-10-26T21:56:07.897Z,11.36
2022-10-26T21:58:34.548Z,11.32
2022-10-26T22:01:21.970Z,11.38
2022-10-26T22:03:49.752Z,11.40
2022-10-26T22:08:46.941Z,11.26
2022-10-26T22:11:17.191Z,11.19
2022-10-26T22:13:44.776Z,11.07
2022-10-26T22:16:15.592Z,10.98
2022-10-26T22:18:44.991Z,10.84
2022-10-26T22:21:13.275Z,10.76
2022-10-26T22:23:41.690Z,10.70
2022-10-26T22:26:22.603Z,10.51
2022-10-26T22:28:54.707Z,10.39
2022-10-26T22:31:24.216Z,10.28
2022-10-26T22:33:52.907Z,10.22
2022-10-26T22:36:19.544Z,10.25
2022-10-26T22:38:46.252Z,10.18
2022-10-26T22:41:14.262Z,10.19
2022-10-26T22:43:40.858Z,10.22
2022-10-26T22:46:12.400Z,10.19
2022-10-26T22:48:39.435Z,10.10
2022-10-26T22:51:10.602Z,10.00
2022-10-26T22:53:37.328Z,10.02
2022-10-26T22:56:05.744Z,9.91
2022-10-26T22:58:32.578Z,9.84
2022-10-26T23:01:11.544Z,9.76
2022-10-26T23:03:38.757Z,9.79
2022-10-26T23:06:14.863Z,9.76
2022-10-26T23:08:41.875Z,9.79
2022-10-26T23:11:11.877Z,9.74
2022-10-26T23:13:38.669Z,9.79
2022-10-26T23:16:16.469Z,9.81
2022-10-26T23:18:43.105Z,9.90
2022-10-26T23:21:11.870Z,9.91
2022-10-26T23:23:38.631Z,9.92
2022-10-26T23:26:12.091Z,9.96
2022-10-26T23:28:39.535Z,9.93
2022-10-26T23:31:06.925Z,10.09
2022-10-26T23:33:33.546Z,10.17
2022-10-26T23:36:01.302Z,10.15
2022-10-26T23:38:27.950Z,10.18
2022-10-26T23:40:56.738Z,10.26
2022-10-26T23:43:24.097Z,10.22
2022-10-26T23:45:51.225Z,10.22
2022-10-26T23:48:19.269Z,10.24
2022-10-26T23:50:47.869Z,10.30
2022-10-26T23:53:16.102Z,10.27
2022-10-26T23:55:46.633Z,10.26
2022-10-26T23:58:13.846Z,10.32
